Time;durP1;ratioP1;P1;durP2;ratioP2;P2;SDS_P1;SDS_P2;PMS_P1;PMS_P2;Temp;Humidity;BMP_temperature;BMP_pressure;BME280_temperature;BME280_humidity;BME280_pressure;Samples;Min_cycle;Max_cycle;Signal;HPM_P1;HPM_P2
2022/08/15 00:01:14;;;;;;;1999.90;999.90;;;18.90;75.00;;;;;;4975956;28;20093;-81
2022/08/15 00:03:44;;;;;;;1999.90;999.90;;;18.90;74.30;;;;;;4959086;28;20041;-81
2022/08/15 00:06:14;;;;;;;1999.90;999.90;;;18.90;73.90;;;;;;4970379;28;20039;-81
2022/08/15 00:08:44;;;;;;;1999.90;999.90;;;19.00;73.60;;;;;;4976619;28;20076;-82
2022/08/15 00:11:15;;;;;;;1999.90;999.90;;;18.90;74.40;;;;;;4976666;28;20130;-82
2022/08/15 00:13:43;;;;;;;1999.90;999.90;;;18.90;74.00;;;;;;4976138;28;20037;-81
2022/08/15 00:16:10;;;;;;;1999.90;999.90;;;18.90;73.90;;;;;;4976294;28;20406;-82
2022/08/15 00:18:36;;;;;;;1999.90;999.90;;;18.90;73.50;;;;;;4976134;28;20366;-82
2022/08/15 00:21:03;;;;;;;1999.90;999.90;;;18.90;74.20;;;;;;4957091;28;20036;-82
2022/08/15 00:23:29;;;;;;;1999.90;999.90;;;18.80;75.10;;;;;;4974097;28;20129;-81
2022/08/15 00:25:59;;;;;;;1999.90;999.90;;;18.80;75.70;;;;;;4958899;28;20038;-81
2022/08/15 00:28:27;;;;;;;1999.90;999.90;;;18.80;75.00;;;;;;4976493;28;20030;-82
2022/08/15 00:30:53;;;;;;;1999.90;999.90;;;18.70;75.00;;;;;;4980801;28;20015;-81
2022/08/15 00:33:20;;;;;;;1999.90;999.90;;;18.90;74.00;;;;;;4981528;28;20019;-82
2022/08/15 00:35:49;;;;;;;1999.90;999.90;;;18.90;73.90;;;;;;4978794;28;20114;-81
2022/08/15 00:38:17;;;;;;;1999.90;999.90;;;18.90;73.70;;;;;;4957592;28;20038;-82
2022/08/15 00:43:33;;;;;;;1999.90;999.90;;;19.00;73.20;;;;;;4973361;28;20111;-81
2022/08/15 00:45:59;;;;;;;1999.90;999.90;;;19.00;72.30;;;;;;4955365;28;20109;-81
2022/08/15 00:48:44;;;;;;;1999.90;999.90;;;18.90;73.30;;;;;;4972604;28;20033;-81
2022/08/15 00:51:15;;;;;;;1999.90;999.90;;;18.90;72.60;;;;;;4970847;28;20030;-81
2022/08/15 00:53:44;;;;;;;1684.93;857.60;;;18.90;72.70;;;;;;4971823;28;20175;-82
2022/08/15 00:56:11;;;;;;;1999.90;999.90;;;18.80;73.30;;;;;;4972741;28;20055;-82
2022/08/15 00:58:39;;;;;;;1999.90;999.90;;;18.80;72.40;;;;;;4971804;28;20070;-82
2022/08/15 01:01:07;;;;;;;1999.90;999.90;;;18.80;72.00;;;;;;4972496;28;20039;-81
2022/08/15 01:03:36;;;;;;;1999.90;999.90;;;18.70;72.50;;;;;;4970848;28;20414;-82
2022/08/15 01:06:02;;;;;;;1542.00;887.05;;;18.70;72.70;;;;;;4968438;28;20207;-82
2022/08/15 01:08:33;;;;;;;1999.90;999.90;;;18.70;72.70;;;;;;4971149;28;20117;-81
2022/08/15 01:11:03;;;;;;;1999.90;999.90;;;18.70;72.60;;;;;;4971130;28;20450;-81
2022/08/15 01:13:31;;;;;;;1999.90;999.90;;;18.70;73.00;;;;;;4953701;28;20086;-82
2022/08/15 01:15:57;;;;;;;1999.90;999.90;;;18.70;71.90;;;;;;4968528;28;20121;-81
2022/08/15 01:18:23;;;;;;;1999.90;999.90;;;18.70;71.90;;;;;;4955126;28;20534;-82
2022/08/15 01:20:53;;;;;;;1999.90;999.90;;;18.70;71.90;;;;;;4937854;28;20161;-81
2022/08/15 01:23:40;;;;;;;1999.90;999.90;;;18.60;72.40;;;;;;4970707;28;20058;-82
2022/08/15 01:26:08;;;;;;;1554.35;956.65;;;18.50;72.60;;;;;;4972033;28;20050;-81
2022/08/15 01:28:38;;;;;;;1999.90;999.90;;;18.50;72.20;;;;;;4955121;28;20118;-81
2022/08/15 01:31:11;;;;;;;1999.90;999.90;;;18.50;72.20;;;;;;4940760;28;20035;-81
2022/08/15 01:33:42;;;;;;;1999.90;999.90;;;18.50;72.60;;;;;;4979839;28;20604;-81
2022/08/15 01:36:09;;;;;;;1999.90;999.90;;;18.60;72.10;;;;;;4972311;28;20030;-81
2022/08/15 01:38:42;;;;;;;1999.90;999.90;;;18.50;71.90;;;;;;4971276;28;20035;-81
2022/08/15 01:41:31;;;;;;;1999.90;999.90;;;18.60;72.20;;;;;;4972276;28;20034;-81
2022/08/15 01:44:03;;;;;;;1999.90;999.90;;;18.60;71.80;;;;;;4971655;28;20093;-81
2022/08/15 01:46:32;;;;;;;1999.90;999.90;;;18.60;71.80;;;;;;4969178;28;20026;-81
2022/08/15 01:49:09;;;;;;;1461.95;836.42;;;18.70;71.80;;;;;;4954984;28;20114;-81
2022/08/15 01:51:34;;;;;;;1999.90;999.90;;;18.80;71.10;;;;;;4950250;28;20020;-81
2022/08/15 01:54:07;;;;;;;1999.90;999.90;;;18.70;71.10;;;;;;4969726;28;20030;-81
2022/08/15 01:56:37;;;;;;;1708.78;905.08;;;18.80;71.10;;;;;;4970340;28;20051;-81
2022/08/15 01:59:05;;;;;;;1797.25;964.83;;;18.90;70.90;;;;;;4953377;28;20445;-80
2022/08/15 02:01:40;;;;;;;1999.90;999.90;;;18.90;70.80;;;;;;4968597;28;20039;-81
2022/08/15 02:04:06;;;;;;;1999.90;999.90;;;18.80;71.70;;;;;;4970136;28;20030;-81
2022/08/15 02:06:32;;;;;;;1999.90;999.90;;;18.80;71.70;;;;;;4970406;28;20033;-81
2022/08/15 02:09:00;;;;;;;1999.90;999.90;;;18.70;72.40;;;;;;4972110;28;20058;-82
2022/08/15 02:11:28;;;;;;;1999.90;999.90;;;18.70;73.50;;;;;;4939655;28;20027;-81
2022/08/15 02:13:56;;;;;;;1999.90;999.90;;;18.70;73.30;;;;;;4961290;28;20027;-81
2022/08/15 02:16:25;;;;;;;1999.90;999.90;;;18.70;73.70;;;;;;4970589;28;20462;-81
2022/08/15 02:18:52;;;;;;;1999.90;999.90;;;18.70;73.80;;;;;;4966045;28;20022;-81
2022/08/15 02:21:18;;;;;;;1999.90;999.90;;;18.60;74.70;;;;;;4962888;28;20414;-81
2022/08/15 02:23:44;;;;;;;1999.90;999.90;;;18.70;72.70;;;;;;4972049;28;20455;-81
2022/08/15 02:26:10;;;;;;;1481.65;800.08;;;18.80;72.40;;;;;;4953193;28;20035;-81
2022/08/15 02:28:39;;;;;;;1999.90;999.90;;;18.80;72.80;;;;;;4969627;28;20030;-82
2022/08/15 02:31:16;;;;;;;1999.90;999.90;;;18.80;73.50;;;;;;4970905;28;20465;-82
2022/08/15 02:33:55;;;;;;;1401.10;873.03;;;18.80;73.20;;;;;;4968559;28;20023;-82
2022/08/15 02:36:23;;;;;;;1468.57;822.92;;;18.80;72.50;;;;;;4971239;28;20034;-82
2022/08/15 02:38:50;;;;;;;1999.90;999.90;;;18.80;72.80;;;;;;4969420;28;20031;-82
2022/08/15 02:41:21;;;;;;;1186.68;610.10;;;18.70;73.30;;;;;;4970230;28;20077;-82
2022/08/15 02:43:48;;;;;;;1999.90;999.90;;;18.70;74.20;;;;;;4963367;28;20766;-81
2022/08/15 02:46:17;;;;;;;1237.57;656.28;;;18.70;74.80;;;;;;4970810;28;20106;-81
2022/08/15 02:48:46;;;;;;;1999.90;999.90;;;18.70;75.00;;;;;;4955810;28;20034;-81
2022/08/15 02:51:14;;;;;;;1999.90;999.90;;;18.70;75.70;;;;;;4970262;28;20189;-82
2022/08/15 02:53:43;;;;;;;1322.28;775.47;;;18.70;75.70;;;;;;4963360;28;20188;-81
2022/08/15 02:56:09;;;;;;;1999.90;999.90;;;18.70;75.70;;;;;;4973514;28;20460;-81
2022/08/15 02:58:35;;;;;;;1999.90;999.90;;;18.70;75.90;;;;;;4971528;28;20039;-82
2022/08/15 03:01:03;;;;;;;1999.90;999.90;;;18.70;75.80;;;;;;4962414;28;20054;-82
2022/08/15 03:03:29;;;;;;;1999.90;999.90;;;18.80;75.50;;;;;;4965607;28;20030;-81
2022/08/15 03:05:56;;;;;;;1999.90;999.90;;;18.80;76.10;;;;;;4970871;28;20039;-82
2022/08/15 03:08:21;;;;;;;1999.90;999.90;;;18.70;77.10;;;;;;4968220;28;20022;-83
2022/08/15 03:10:47;;;;;;;1999.90;999.90;;;18.70;76.30;;;;;;4953607;28;20034;-83
2022/08/15 03:13:15;;;;;;;1999.90;999.90;;;18.70;76.60;;;;;;4968626;28;20031;-88
2022/08/15 03:15:46;;;;;;;1160.10;611.40;;;18.60;76.20;;;;;;4977335;28;20034;-87
2022/08/15 03:18:14;;;;;;;1526.05;769.92;;;18.60;77.30;;;;;;4982375;28;20035;-95
2022/08/15 03:20:41;;;;;;;1999.90;999.90;;;18.60;76.60;;;;;;4981379;28;20034;-87
2022/08/15 03:23:07;;;;;;;264.10;176.98;;;18.60;77.50;;;;;;4972556;28;20031;-88
2022/08/15 03:25:41;;;;;;;1242.85;672.25;;;18.60;77.10;;;;;;4953873;28;20066;-86
2022/08/15 03:28:08;;;;;;;1999.90;999.90;;;18.60;77.20;;;;;;4970845;28;20026;-86
2022/08/15 03:30:34;;;;;;;1999.90;999.90;;;18.60;78.30;;;;;;4955375;28;20035;-85
2022/08/15 03:33:00;;;;;;;1999.90;999.90;;;18.50;78.30;;;;;;4954276;28;20061;-89
2022/08/15 03:35:30;;;;;;;1999.90;999.90;;;18.50;78.90;;;;;;4973244;28;20031;-87
2022/08/15 03:37:59;;;;;;;1999.90;999.90;;;18.40;80.20;;;;;;4975523;28;20038;-87
2022/08/15 03:40:25;;;;;;;1999.90;999.90;;;18.20;84.50;;;;;;4953918;28;20031;-86
2022/08/15 03:43:11;;;;;;;1999.90;999.90;;;18.00;90.60;;;;;;4971982;28;20046;-86
2022/08/15 03:45:36;;;;;;;1999.90;999.90;;;17.70;94.40;;;;;;4960135;28;20035;-86
2022/08/15 03:48:02;;;;;;;1999.90;999.90;;;17.40;96.50;;;;;;4953759;28;20030;-85
2022/08/15 03:50:32;;;;;;;1999.90;999.90;;;17.30;98.50;;;;;;4984419;28;20039;-88
2022/08/15 03:53:01;;;;;;;1999.90;999.90;;;17.20;99.30;;;;;;4956235;28;20031;-83
2022/08/15 03:55:29;;;;;;;1999.90;999.90;;;17.10;99.90;;;;;;4952409;28;20019;-82
2022/08/15 03:57:55;;;;;;;1999.90;999.90;;;16.80;99.90;;;;;;4950685;28;20501;-83
2022/08/15 04:00:26;;;;;;;1999.90;999.90;;;16.50;99.90;;;;;;4966205;28;20493;-82
2022/08/15 04:02:53;;;;;;;1999.90;999.90;;;16.10;99.90;;;;;;4968554;28;20046;-83
2022/08/15 04:05:19;;;;;;;1999.90;999.90;;;16.00;99.90;;;;;;4952436;28;20035;-83
2022/08/15 04:07:45;;;;;;;1999.90;999.90;;;15.90;99.90;;;;;;4951954;28;20712;-83
2022/08/15 04:10:17;;;;;;;1999.90;999.90;;;15.90;99.90;;;;;;4952196;28;20066;-83
2022/08/15 04:12:44;;;;;;;1999.90;999.90;;;15.90;99.90;;;;;;4951405;28;20031;-83
2022/08/15 04:15:13;;;;;;;1999.90;999.90;;;15.80;99.90;;;;;;4958193;28;20034;-84
2022/08/15 04:17:39;;;;;;;1999.90;999.90;;;15.80;99.90;;;;;;4973433;28;20081;-83
2022/08/15 04:20:07;;;;;;;1999.90;999.90;;;15.70;99.90;;;;;;4955738;28;20278;-83
2022/08/15 04:22:43;;;;;;;1999.90;999.90;;;15.80;99.90;;;;;;4954816;28;20034;-83
2022/08/15 04:25:11;;;;;;;1999.90;999.90;;;15.80;99.90;;;;;;4971708;28;20031;-83
2022/08/15 04:27:38;;;;;;;1999.90;999.90;;;15.80;99.90;;;;;;4973417;28;20497;-83
2022/08/15 04:30:06;;;;;;;1999.90;999.90;;;15.70;99.90;;;;;;4953425;28;20134;-82
2022/08/15 04:32:32;;;;;;;1999.90;999.90;;;15.80;99.90;;;;;;4971406;28;20035;-83
2022/08/15 04:35:00;;;;;;;1999.90;999.90;;;15.70;99.90;;;;;;4973430;28;20568;-83
2022/08/15 04:37:28;;;;;;;1999.90;999.90;;;15.80;99.90;;;;;;4955456;28;20034;-82
2022/08/15 04:39:54;;;;;;;1999.90;999.90;;;15.80;99.90;;;;;;4973119;28;20031;-82
2022/08/15 04:42:21;;;;;;;1999.90;999.90;;;15.70;99.90;;;;;;4973072;28;20039;-82
2022/08/15 04:44:47;;;;;;;1999.90;999.90;;;15.80;99.90;;;;;;4973589;28;20030;-83
2022/08/15 04:47:14;;;;;;;1999.90;999.90;;;15.70;99.90;;;;;;4971157;28;20027;-84
2022/08/15 04:49:41;;;;;;;1999.90;999.90;;;15.70;99.90;;;;;;4956055;28;20108;-83
2022/08/15 04:52:14;;;;;;;1999.90;999.90;;;15.70;99.90;;;;;;4956155;28;20030;-83
2022/08/15 04:54:41;;;;;;;1999.90;999.90;;;15.70;99.90;;;;;;4973086;28;20494;-83
2022/08/15 04:57:08;;;;;;;1999.90;999.90;;;15.70;99.90;;;;;;4969957;28;20046;-83
2022/08/15 04:59:34;;;;;;;1999.90;999.90;;;15.80;99.90;;;;;;4953011;28;20035;-83
2022/08/15 05:02:01;;;;;;;1999.90;999.90;;;15.80;99.90;;;;;;4970110;28;20130;-83
2022/08/15 05:04:26;;;;;;;1999.90;999.90;;;15.80;99.90;;;;;;4963024;28;20035;-82
2022/08/15 05:06:52;;;;;;;1999.90;999.90;;;15.80;99.90;;;;;;4962805;28;20041;-84
2022/08/15 05:09:17;;;;;;;1999.90;999.90;;;15.90;99.90;;;;;;4955238;28;20039;-83
2022/08/15 05:11:43;;;;;;;1999.90;999.90;;;15.90;99.90;;;;;;4955732;28;20505;-82
2022/08/15 05:14:09;;;;;;;1999.90;999.90;;;15.90;99.90;;;;;;4942197;28;20045;-83
2022/08/15 05:16:34;;;;;;;1999.90;999.90;;;15.90;99.90;;;;;;4973314;28;20118;-83
2022/08/15 05:19:01;;;;;;;1999.90;999.90;;;15.90;99.90;;;;;;4955101;28;20117;-82
2022/08/15 05:21:28;;;;;;;1999.90;999.90;;;15.90;99.90;;;;;;4972766;28;20034;-83
2022/08/15 05:23:54;;;;;;;1999.90;999.90;;;16.00;99.90;;;;;;4954754;28;20033;-83
2022/08/15 05:26:20;;;;;;;1999.90;999.90;;;16.00;99.90;;;;;;4971838;28;20174;-83
2022/08/15 05:28:46;;;;;;;1999.90;999.90;;;15.90;99.90;;;;;;4954940;28;20105;-83
2022/08/15 05:31:12;;;;;;;1999.90;999.90;;;15.90;99.90;;;;;;4970235;28;20027;-83
2022/08/15 05:33:42;;;;;;;1999.90;999.90;;;15.90;99.90;;;;;;4959398;28;20037;-83
2022/08/15 05:36:08;;;;;;;1999.90;999.90;;;15.80;99.90;;;;;;4969955;28;20042;-83
2022/08/15 05:38:55;;;;;;;1999.90;999.90;;;15.80;99.90;;;;;;4972096;28;20072;-83
2022/08/15 05:41:39;;;;;;;1999.90;999.90;;;15.80;99.90;;;;;;4968661;28;20137;-82
2022/08/15 05:44:31;;;;;;;1999.90;999.90;;;15.80;99.90;;;;;;4969614;28;20114;-81
2022/08/15 05:47:06;;;;;;;1999.90;999.90;;;15.70;99.90;;;;;;4972571;28;20046;-82
2022/08/15 05:49:59;;;;;;;1999.90;999.90;;;15.70;99.90;;;;;;4953509;28;20027;-82
2022/08/15 05:53:00;;;;;;;1999.90;999.90;;;15.60;99.90;;;;;;4945649;28;20056;-82
2022/08/15 05:55:50;;;;;;;1999.90;999.90;;;15.60;99.90;;;;;;4968536;28;20119;-82
2022/08/15 05:58:31;;;;;;;1999.90;999.90;;;15.60;99.90;;;;;;4967689;28;20043;-82
2022/08/15 06:01:17;;;;;;;1999.90;999.90;;;15.70;99.90;;;;;;4970527;28;20042;-82
2022/08/15 06:03:50;;;;;;;1999.90;999.90;;;15.70;99.90;;;;;;4953714;28;20505;-83
2022/08/15 06:06:20;;;;;;;1999.90;999.90;;;15.70;99.90;;;;;;4971753;28;20073;-83
2022/08/15 06:08:52;;;;;;;;;;;15.90;99.90;;;;;;4969381;28;20700;-82
2022/08/15 06:11:30;;;;;;;1999.90;999.90;;;16.00;99.90;;;;;;4969213;28;19983;-83
2022/08/15 06:14:09;;;;;;;1999.90;999.90;;;16.00;99.90;;;;;;4954685;28;20077;-81
2022/08/15 06:16:52;;;;;;;1999.90;999.90;;;16.10;99.90;;;;;;4937244;28;20034;-82
2022/08/15 06:19:41;;;;;;;1999.90;999.90;;;16.20;99.90;;;;;;4968864;28;20026;-82
2022/08/15 06:22:34;;;;;;;1999.90;999.90;;;16.20;99.90;;;;;;4970555;28;20520;-82
2022/08/15 06:25:16;;;;;;;1999.90;999.90;;;16.30;99.90;;;;;;4954638;28;20027;-82
2022/08/15 06:28:10;;;;;;;1999.90;999.90;;;16.40;99.90;;;;;;4966154;28;20023;-82
2022/08/15 06:31:05;;;;;;;1999.90;999.90;;;16.40;99.90;;;;;;4968131;28;20046;-82
2022/08/15 06:33:53;;;;;;;1999.90;999.90;;;16.60;99.90;;;;;;4969009;28;20026;-82
2022/08/15 06:36:29;;;;;;;1999.90;999.90;;;16.60;99.90;;;;;;4969935;28;20103;-82
2022/08/15 06:39:01;;;;;;;1999.90;999.90;;;16.80;99.90;;;;;;4970778;28;20499;-82
2022/08/15 06:41:33;;;;;;;1999.90;999.90;;;16.90;99.90;;;;;;4951234;28;20037;-82
2022/08/15 06:44:00;;;;;;;1999.90;999.90;;;17.00;99.90;;;;;;4953060;28;20030;-82
2022/08/15 06:46:33;;;;;;;1999.90;999.90;;;17.00;99.90;;;;;;4953523;28;20509;-82
2022/08/15 06:49:05;;;;;;;1999.90;999.90;;;17.10;99.90;;;;;;4971462;28;20034;-82
2022/08/15 06:51:34;;;;;;;1999.90;999.90;;;17.20;99.90;;;;;;4969514;28;20038;-82
2022/08/15 06:54:00;;;;;;;1999.90;999.90;;;17.30;99.90;;;;;;4959291;28;20037;-81
2022/08/15 06:56:45;;;;;;;1999.90;999.90;;;17.30;99.90;;;;;;4961116;28;20061;-81
2022/08/15 06:59:21;;;;;;;1999.90;999.90;;;17.30;99.90;;;;;;4968542;28;20046;-82
2022/08/15 07:02:15;;;;;;;1999.90;999.90;;;17.50;99.90;;;;;;4968972;28;20043;-82
2022/08/15 07:04:50;;;;;;;1999.90;999.90;;;17.50;99.90;;;;;;4970465;28;20026;-82
2022/08/15 07:07:37;;;;;;;1999.90;999.90;;;17.40;99.90;;;;;;4970803;28;20037;-81
2022/08/15 07:10:34;;;;;;;1999.90;999.90;;;17.60;99.90;;;;;;4968161;28;20046;-82
2022/08/15 07:13:03;;;;;;;1999.90;999.90;;;17.60;99.90;;;;;;4954935;28;20097;-81
2022/08/15 07:15:40;;;;;;;1999.90;999.90;;;17.60;99.90;;;;;;4972498;28;20046;-82
2022/08/15 07:18:19;;;;;;;1999.90;999.90;;;17.70;99.90;;;;;;4952653;28;20414;-81
2022/08/15 07:20:45;;;;;;;1999.90;999.90;;;17.70;99.90;;;;;;4962276;28;20022;-81
2022/08/15 07:23:23;;;;;;;1999.90;999.90;;;17.90;99.90;;;;;;4955615;28;20432;-81
2022/08/15 07:25:52;;;;;;;1999.90;999.90;;;17.70;99.90;;;;;;4973252;28;20041;-81
2022/08/15 07:28:27;;;;;;;1999.90;999.90;;;17.80;99.90;;;;;;4971648;28;20042;-82
2022/08/15 07:31:04;;;;;;;1999.90;999.90;;;17.80;99.90;;;;;;4970711;28;20038;-82
2022/08/15 07:33:49;;;;;;;1016.83;505.67;;;18.00;99.90;;;;;;4970264;28;20499;-82
2022/08/15 07:36:26;;;;;;;1531.70;760.08;;;18.10;99.90;;;;;;4968718;28;20037;-82
2022/08/15 07:38:53;;;;;;;1999.90;999.90;;;18.10;99.90;;;;;;4966674;28;20153;-82
2022/08/15 07:41:30;;;;;;;1999.90;999.90;;;18.10;99.90;;;;;;4969453;28;20035;-81
2022/08/15 07:43:59;;;;;;;1999.90;999.90;;;18.10;99.90;;;;;;4952864;28;20035;-81
2022/08/15 07:46:56;;;;;;;1999.90;999.90;;;18.20;99.90;;;;;;4970145;28;20060;-81
2022/08/15 07:49:26;;;;;;;1999.90;999.90;;;18.20;99.90;;;;;;4967925;28;20039;-81
2022/08/15 07:52:20;;;;;;;1999.90;999.90;;;18.20;99.90;;;;;;4974217;28;20030;-81
2022/08/15 07:54:49;;;;;;;1999.90;999.90;;;18.40;99.90;;;;;;4957105;28;20074;-81
2022/08/15 07:57:36;;;;;;;1999.90;999.90;;;18.40;99.90;;;;;;4973579;28;20135;-81
2022/08/15 08:00:14;;;;;;;1999.90;999.90;;;18.60;99.90;;;;;;4953965;28;20114;-82
2022/08/15 08:03:09;;;;;;;1999.90;999.90;;;18.30;99.90;;;;;;4971404;28;20035;-81
2022/08/15 08:05:59;;;;;;;1999.90;999.90;;;18.40;99.90;;;;;;4971083;28;20062;-82
2022/08/15 08:08:41;;;;;;;1999.90;999.90;;;18.50;99.90;;;;;;4972489;28;20037;-82
2022/08/15 08:11:45;;;;;;;1999.90;999.90;;;18.70;99.90;;;;;;4974183;28;20035;-81
2022/08/15 08:14:50;;;;;;;1999.90;999.90;;;18.60;99.90;;;;;;4885603;29;20060;-82
2022/08/15 08:17:20;;;;;;;1999.90;999.90;;;18.80;99.90;;;;;;4972221;28;20125;-81
2022/08/15 08:20:20;;;;;;;1999.90;999.90;;;18.80;99.90;;;;;;4970810;28;20052;-81
2022/08/15 08:23:07;;;;;;;1999.90;999.90;;;19.20;99.90;;;;;;4955149;28;20062;-82
2022/08/15 08:26:09;;;;;;;1549.53;785.00;;;19.40;99.60;;;;;;4969441;28;20034;-82
2022/08/15 08:29:03;;;;;;;1999.90;999.90;;;19.20;99.90;;;;;;4966330;28;20153;-81
2022/08/15 08:31:28;;;;;;;1999.90;999.90;;;19.00;99.90;;;;;;4972453;28;20027;-81
2022/08/15 08:34:11;;;;;;;1999.90;999.90;;;19.60;99.90;;;;;;4972618;28;20474;-82
2022/08/15 08:37:02;;;;;;;1999.90;999.90;;;19.30;95.60;;;;;;4971093;28;20389;-82
2022/08/15 08:39:36;;;;;;;1999.90;999.90;;;19.30;97.40;;;;;;4968969;28;20029;-82
2022/08/15 08:42:25;;;;;;;837.63;423.00;;;19.60;95.00;;;;;;4961010;28;20027;-81
2022/08/15 08:45:15;;;;;;;571.00;390.13;;;19.80;98.40;;;;;;4962303;28;20038;-81
2022/08/15 08:47:55;;;;;;;1673.85;898.17;;;20.10;93.80;;;;;;4971033;28;20399;-82
2022/08/15 08:50:33;;;;;;;1999.90;999.90;;;20.10;90.50;;;;;;4970582;28;20046;-81
2022/08/15 08:53:05;;;;;;;1999.90;999.90;;;20.00;92.60;;;;;;4953353;28;20049;-81
2022/08/15 08:55:38;;;;;;;1999.90;999.90;;;20.10;91.50;;;;;;4952668;28;20026;-81
2022/08/15 08:58:11;;;;;;;1999.90;999.90;;;20.10;88.70;;;;;;4973122;28;20031;-82
2022/08/15 09:00:42;;;;;;;1999.90;999.90;;;20.20;90.40;;;;;;4967780;28;20030;-81
2022/08/15 09:03:27;;;;;;;1999.90;999.90;;;20.50;92.40;;;;;;4971677;28;20037;-82
2022/08/15 09:05:58;;;;;;;1999.90;999.90;;;20.60;91.30;;;;;;4953687;28;20038;-81
2022/08/15 09:08:41;;;;;;;1999.90;999.90;;;21.30;88.10;;;;;;4973765;28;20635;-82
2022/08/15 09:11:36;;;;;;;1514.72;804.28;;;21.60;78.10;;;;;;4966604;28;20034;-82
2022/08/15 09:14:14;;;;;;;482.15;265.83;;;21.40;77.20;;;;;;4970964;28;20130;-81
2022/08/15 09:16:41;;;;;;;863.33;505.95;;;21.70;80.90;;;;;;4969485;28;20414;-82
2022/08/15 09:19:19;;;;;;;1999.90;999.90;;;21.70;73.50;;;;;;4972738;28;20031;-81
2022/08/15 09:21:46;;;;;;;1663.68;795.88;;;21.70;76.50;;;;;;4972145;28;20118;-82
2022/08/15 09:24:14;;;;;;;1741.70;657.78;;;22.20;74.50;;;;;;4986404;28;20035;-81
2022/08/15 09:27:21;;;;;;;1814.95;779.92;;;22.30;69.50;;;;;;4975768;28;20553;-82
2022/08/15 09:29:52;;;;;;;1734.65;807.97;;;22.70;66.50;;;;;;4890596;29;20111;-81
2022/08/15 09:32:27;;;;;;;1999.90;999.90;;;22.90;64.50;;;;;;4959877;28;20046;-81
2022/08/15 09:35:26;;;;;;;1999.90;967.80;;;23.00;69.80;;;;;;4972575;28;20434;-82
2022/08/15 09:37:52;;;;;;;1999.90;999.90;;;23.20;64.00;;;;;;4954566;28;20034;-81
2022/08/15 09:40:32;;;;;;;1759.50;760.03;;;23.10;66.90;;;;;;4972105;28;20046;-80
2022/08/15 09:43:24;;;;;;;1999.90;999.90;;;23.90;68.30;;;;;;4970487;28;20812;-81
2022/08/15 09:45:59;;;;;;;1973.18;943.63;;;23.90;62.90;;;;;;4970359;28;20080;-81
2022/08/15 09:48:37;;;;;;;1655.25;656.65;;;23.60;66.10;;;;;;4968902;28;20027;-81
2022/08/15 09:51:08;;;;;;;1954.70;938.55;;;23.70;61.80;;;;;;4970217;28;20027;-81
2022/08/15 09:53:48;;;;;;;1876.60;999.90;;;23.90;61.30;;;;;;4950538;28;20457;-81
2022/08/15 09:56:17;;;;;;;;;;;24.00;60.50;;;;;;4968706;28;20047;-81
2022/08/15 09:59:09;;;;;;;1751.15;969.03;;;24.20;59.40;;;;;;4972076;28;19913;-81
2022/08/15 10:01:44;;;;;;;1999.90;999.90;;;24.70;65.60;;;;;;4968300;28;20031;-81
2022/08/15 10:04:15;;;;;;;1999.90;999.90;;;24.60;60.50;;;;;;4971729;28;20077;-81
2022/08/15 10:07:13;;;;;;;1999.90;999.90;;;24.90;62.00;;;;;;4967691;28;20052;-81
2022/08/15 10:10:09;;;;;;;1999.90;999.90;;;24.90;58.20;;;;;;4969256;28;20049;-81
2022/08/15 10:12:37;;;;;;;1999.90;999.90;;;24.70;60.20;;;;;;4945507;28;20471;-80
2022/08/15 10:15:23;;;;;;;1632.30;970.00;;;25.20;57.40;;;;;;4953704;28;20030;-81
2022/08/15 10:17:48;;;;;;;1999.90;914.45;;;24.80;58.40;;;;;;4947464;28;20406;-80
2022/08/15 10:20:17;;;;;;;1999.90;999.90;;;25.00;58.20;;;;;;4967822;28;20031;-81
2022/08/15 10:22:57;;;;;;;1946.50;999.90;;;25.80;56.50;;;;;;4969760;28;20030;-81
2022/08/15 10:25:35;;;;;;;1787.53;999.90;;;26.50;51.00;;;;;;4969970;28;20169;-81
2022/08/15 10:28:09;;;;;;;1710.88;999.90;;;26.50;52.70;;;;;;4970257;28;20027;-81
2022/08/15 10:31:00;;;;;;;1640.75;999.90;;;25.90;50.10;;;;;;4953141;28;20402;-81
2022/08/15 10:33:32;;;;;;;1398.40;999.90;;;25.60;50.90;;;;;;4967204;28;20030;-80
2022/08/15 10:36:13;;;;;;;1428.22;992.67;;;25.30;51.20;;;;;;4971407;28;20062;-81
2022/08/15 10:38:44;;;;;;;1827.07;999.90;;;25.50;54.70;;;;;;4968724;28;20046;-80
2022/08/15 10:41:39;;;;;;;1665.57;999.90;;;25.50;50.10;;;;;;4966879;28;20042;-80
2022/08/15 10:44:23;;;;;;;1456.22;913.83;;;26.10;50.90;;;;;;4976449;28;20029;-80
2022/08/15 10:47:13;;;;;;;1907.28;999.90;;;26.00;46.20;;;;;;4973209;28;20078;-81
2022/08/15 10:50:03;;;;;;;1304.38;998.40;;;26.50;47.90;;;;;;4954692;28;20058;-81
2022/08/15 10:52:57;;;;;;;1962.22;999.90;;;26.60;46.00;;;;;;4970480;28;20030;-81
2022/08/15 10:55:32;;;;;;;1564.22;994.42;;;26.90;47.70;;;;;;4959737;28;20105;-80
2022/08/15 10:58:32;;;;;;;1116.70;983.90;;;26.80;47.20;;;;;;4967602;28;20425;-80
2022/08/15 11:01:06;;;;;;;881.95;808.03;;;27.50;42.70;;;;;;4968768;28;20026;-80
2022/08/15 11:03:48;;;;;;;970.30;881.78;;;27.50;40.00;;;;;;4968566;28;20027;-80
2022/08/15 11:06:19;;;;;;;1437.57;956.70;;;27.60;42.70;;;;;;4965462;28;20038;-80
2022/08/15 11:08:53;;;;;;;625.85;590.95;;;27.30;41.70;;;;;;4949188;28;20038;-81
2022/08/15 11:11:23;;;;;;;856.30;793.95;;;27.90;37.20;;;;;;4971227;28;20033;-80
2022/08/15 11:13:55;;;;;;;819.63;761.30;;;28.00;38.40;;;;;;4955204;28;20413;-81
2022/08/15 11:16:44;;;;;;;935.65;858.33;;;28.40;36.80;;;;;;4954257;28;20429;-81
2022/08/15 11:19:19;;;;;;;874.17;811.67;;;29.00;36.80;;;;;;4970382;28;20035;-80
2022/08/15 11:21:55;;;;;;;656.40;608.08;;;29.20;36.60;;;;;;4968459;28;20031;-81
2022/08/15 11:24:39;;;;;;;804.50;722.35;;;29.30;34.80;;;;;;4969203;28;20037;-81
2022/08/15 11:27:10;;;;;;;861.97;792.22;;;28.60;36.20;;;;;;4952371;28;20485;-80
2022/08/15 11:29:36;;;;;;;520.67;491.90;;;28.80;35.70;;;;;;4967279;28;20026;-81
2022/08/15 11:32:02;;;;;;;743.15;691.13;;;29.20;32.60;;;;;;4967844;28;20089;-81
2022/08/15 11:34:41;;;;;;;1209.53;999.90;;;29.60;34.30;;;;;;4960412;28;20054;-81
2022/08/15 11:37:13;;;;;;;615.08;577.92;;;29.80;35.20;;;;;;4993038;28;20019;-81
2022/08/15 11:39:43;;;;;;;633.42;595.97;;;29.80;33.20;;;;;;4969461;28;20027;-81
2022/08/15 11:42:18;;;;;;;722.63;681.42;;;30.50;32.00;;;;;;4953067;28;20045;-80
2022/08/15 11:44:52;;;;;;;648.30;609.80;;;30.20;32.50;;;;;;4950955;28;20031;-81
2022/08/15 11:47:19;;;;;;;794.05;736.45;;;29.30;30.80;;;;;;4970035;28;20035;-80
2022/08/15 11:49:52;;;;;;;688.22;646.10;;;29.40;34.00;;;;;;4948140;28;20085;-82
2022/08/15 11:52:35;;;;;;;675.45;635.90;;;29.70;30.00;;;;;;4953654;28;20075;-82
2022/08/15 11:55:17;;;;;;;711.72;668.17;;;30.00;30.80;;;;;;4952914;28;20073;-82
2022/08/15 11:57:46;;;;;;;651.90;610.72;;;30.30;30.20;;;;;;4967634;28;20051;-81
2022/08/15 12:00:23;;;;;;;573.63;542.08;;;30.30;30.50;;;;;;4969199;28;20050;-81
2022/08/15 12:02:49;;;;;;;703.17;661.63;;;30.50;29.40;;;;;;4957356;28;20118;-81
2022/08/15 12:05:26;;;;;;;808.55;757.15;;;30.80;29.20;;;;;;4970172;28;20688;-82
2022/08/15 12:07:57;;;;;;;941.25;863.00;;;30.50;30.00;;;;;;4970629;28;20479;-82
2022/08/15 12:10:31;;;;;;;801.80;751.60;;;30.50;31.70;;;;;;4968464;28;20039;-81
2022/08/15 12:13:02;;;;;;;744.40;694.75;;;31.20;29.70;;;;;;4953133;28;20114;-81
2022/08/15 12:15:30;;;;;;;834.22;772.22;;;30.90;29.70;;;;;;4969253;28;20023;-81
2022/08/15 12:18:20;;;;;;;594.17;563.28;;;30.80;28.10;;;;;;4969770;28;20025;-82
2022/08/15 12:20:55;;;;;;;561.95;533.75;;;32.30;26.00;;;;;;4967452;28;20375;-81
2022/08/15 12:23:30;;;;;;;683.25;644.88;;;32.00;29.00;;;;;;4968236;28;20023;-81
2022/08/15 12:26:15;;;;;;;887.20;822.80;;;32.30;28.20;;;;;;4968949;28;20042;-81
2022/08/15 12:28:43;;;;;;;689.28;648.40;;;31.80;29.60;;;;;;4961189;28;20034;-82
2022/08/15 12:31:25;;;;;;;633.13;597.22;;;32.30;28.80;;;;;;4967810;28;20807;-81
2022/08/15 12:34:24;;;;;;;676.30;635.40;;;32.60;26.90;;;;;;4969546;28;20486;-82
2022/08/15 12:36:51;;;;;;;682.45;645.78;;;32.10;26.80;;;;;;4958182;28;20035;-81
2022/08/15 12:39:18;;;;;;;587.08;556.97;;;31.80;27.30;;;;;;4972833;28;20506;-82